createdAt,value
2022-12-31T00:02:47.549Z,6.72
2022-12-31T00:05:49.471Z,7.05
2022-12-31T00:08:52.027Z,7.93
2022-12-31T00:11:53.906Z,7.79
2022-12-31T00:14:55.727Z,7.70
2022-12-31T00:17:57.565Z,7.40
2022-12-31T00:20:59.423Z,7.31
2022-12-31T00:24:01.603Z,7.28
2022-12-31T00:27:03.493Z,7.33
2022-12-31T00:30:05.573Z,7.67
2022-12-31T00:33:07.453Z,7.51
2022-12-31T00:36:13.438Z,7.49
2022-12-31T00:39:15.335Z,7.99
2022-12-31T00:42:17.200Z,7.93
2022-12-31T00:45:19.127Z,7.66
2022-12-31T00:48:21.158Z,7.20
2022-12-31T00:51:23.655Z,6.88
2022-12-31T00:54:25.558Z,7.52
2022-12-31T00:57:27.405Z,6.83
2022-12-31T01:00:29.299Z,7.41
2022-12-31T01:03:31.217Z,7.39
2022-12-31T01:06:33.176Z,7.27
2022-12-31T01:09:35.215Z,6.43
2022-12-31T01:12:37.208Z,7.14
2022-12-31T01:15:39.173Z,6.98
2022-12-31T01:18:41.407Z,7.18
2022-12-31T01:21:43.864Z,7.17
2022-12-31T01:24:45.696Z,6.53
2022-12-31T01:27:47.511Z,7.00
2022-12-31T01:30:49.394Z,6.77
2022-12-31T01:33:51.401Z,6.36
2022-12-31T01:36:53.255Z,6.94
2022-12-31T01:39:55.115Z,5.46
2022-12-31T01:42:57.151Z,6.15
2022-12-31T01:45:59.085Z,6.27
2022-12-31T01:49:02.362Z,6.20
2022-12-31T01:52:04.237Z,6.68
2022-12-31T01:55:07.933Z,6.91
2022-12-31T01:58:11.389Z,6.68
2022-12-31T02:01:13.992Z,7.24
2022-12-31T02:04:15.897Z,7.32
2022-12-31T02:07:17.860Z,6.67
2022-12-31T02:10:19.736Z,6.26
2022-12-31T02:13:21.604Z,6.81
2022-12-31T02:16:27.312Z,7.04
2022-12-31T02:19:52.285Z,7.28
2022-12-31T02:23:14.392Z,7.41
2022-12-31T02:26:31.377Z,8.41
2022-12-31T02:29:51.627Z,7.15
2022-12-31T02:32:55.618Z,6.18
2022-12-31T02:35:58.628Z,7.20
2022-12-31T02:39:00.546Z,7.95
2022-12-31T02:42:02.842Z,7.69
2022-12-31T02:45:04.897Z,6.78
2022-12-31T02:48:19.185Z,7.01
2022-12-31T02:51:47.281Z,7.13
2022-12-31T02:55:07.799Z,7.82
2022-12-31T02:58:48.434Z,7.73
2022-12-31T03:02:13.804Z,6.96
2022-12-31T03:05:16.293Z,7.23
2022-12-31T03:08:25.435Z,7.21
2022-12-31T03:11:45.823Z,7.06
2022-12-31T03:14:47.654Z,7.96
2022-12-31T03:18:00.657Z,7.73
2022-12-31T03:21:21.256Z,7.13
2022-12-31T03:24:42.006Z,7.34
2022-12-31T03:27:44.545Z,6.63
2022-12-31T03:30:47.839Z,7.23
2022-12-31T03:33:49.684Z,7.41
2022-12-31T03:36:51.624Z,6.84
2022-12-31T03:39:53.523Z,6.90
2022-12-31T03:42:55.410Z,6.99
2022-12-31T03:45:59.821Z,8.07
2022-12-31T03:49:01.754Z,7.73
2022-12-31T03:52:03.726Z,7.20
2022-12-31T03:55:06.201Z,7.26
2022-12-31T03:58:08.063Z,8.35
2022-12-31T04:01:10.052Z,6.79
2022-12-31T04:04:12.144Z,6.69
2022-12-31T04:07:14.015Z,6.94
2022-12-31T04:10:16.953Z,6.78
2022-12-31T04:13:18.809Z,7.35
2022-12-31T04:16:20.667Z,7.47
2022-12-31T04:19:22.590Z,7.13
2022-12-31T04:22:24.438Z,7.46
2022-12-31T04:25:26.287Z,7.57
2022-12-31T04:28:28.113Z,7.54
2022-12-31T04:31:30.152Z,7.80
2022-12-31T04:34:32.413Z,7.38
2022-12-31T04:37:34.286Z,6.12
2022-12-31T04:40:56.129Z,6.74
2022-12-31T04:43:58.449Z,6.39
2022-12-31T04:47:00.410Z,6.82
2022-12-31T04:50:02.577Z,7.48
2022-12-31T04:53:04.435Z,7.20
2022-12-31T04:56:06.908Z,7.39
2022-12-31T04:59:10.163Z,7.47
2022-12-31T05:02:12.166Z,8.06
2022-12-31T05:05:14.117Z,7.16
2022-12-31T05:08:15.977Z,7.44
2022-12-31T05:11:18.021Z,6.75
2022-12-31T05:14:20.064Z,7.24
2022-12-31T05:17:22.020Z,7.61
2022-12-31T05:20:23.903Z,6.89
2022-12-31T05:23:25.788Z,6.38
2022-12-31T05:26:27.655Z,6.16
2022-12-31T05:29:29.570Z,5.82
2022-12-31T05:32:31.593Z,6.17
2022-12-31T05:35:34.455Z,6.10
2022-12-31T05:38:37.194Z,7.51
2022-12-31T05:41:39.102Z,6.77
2022-12-31T05:44:40.984Z,7.22
2022-12-31T05:47:42.986Z,5.62
2022-12-31T05:50:44.901Z,6.36
2022-12-31T05:53:46.844Z,6.36
2022-12-31T05:56:48.727Z,6.32
2022-12-31T05:59:53.525Z,6.11
2022-12-31T06:02:55.518Z,6.60
2022-12-31T06:05:57.495Z,6.96
2022-12-31T06:08:59.360Z,7.39
2022-12-31T06:12:01.186Z,7.14
2022-12-31T06:15:03.162Z,6.85
2022-12-31T06:18:05.091Z,6.72
2022-12-31T06:21:07.081Z,6.32
2022-12-31T06:24:09.066Z,7.06
2022-12-31T06:27:10.942Z,7.70
2022-12-31T06:30:13.254Z,7.20
2022-12-31T06:33:15.392Z,6.77
2022-12-31T06:36:17.401Z,6.91
2022-12-31T06:39:19.356Z,7.04
2022-12-31T06:42:21.199Z,7.31
2022-12-31T06:45:23.051Z,7.34
2022-12-31T06:48:25.017Z,7.84
2022-12-31T06:51:26.922Z,7.74
2022-12-31T06:54:28.832Z,7.87
2022-12-31T06:57:30.946Z,7.71
2022-12-31T07:00:32.980Z,7.62
2022-12-31T07:03:37.962Z,7.29
2022-12-31T07:06:46.050Z,7.33
2022-12-31T07:09:47.885Z,7.51
2022-12-31T07:13:09.708Z,6.96
2022-12-31T07:16:26.670Z,6.36
2022-12-31T07:19:37.794Z,6.67
2022-12-31T07:22:40.159Z,7.43
2022-12-31T07:25:44.503Z,6.91
2022-12-31T07:28:52.598Z,7.15
2022-12-31T07:31:57.244Z,7.18
2022-12-31T07:35:05.403Z,7.46
2022-12-31T07:38:22.401Z,7.57
2022-12-31T07:41:27.001Z,8.12
2022-12-31T07:44:41.492Z,8.60
2022-12-31T07:47:43.682Z,8.57
2022-12-31T07:50:45.621Z,7.91
2022-12-31T07:53:47.674Z,7.32
2022-12-31T07:56:49.585Z,8.18
2022-12-31T07:59:51.510Z,8.52
2022-12-31T08:02:56.574Z,8.06
2022-12-31T08:06:08.663Z,8.29
2022-12-31T08:09:13.682Z,8.70
2022-12-31T08:12:15.805Z,7.78
2022-12-31T08:15:18.384Z,7.20
2022-12-31T08:18:20.369Z,7.65
2022-12-31T08:21:29.479Z,7.90
2022-12-31T08:24:41.315Z,8.54
2022-12-31T08:27:46.212Z,9.07
2022-12-31T08:30:53.950Z,8.48
2022-12-31T08:34:06.186Z,8.64
2022-12-31T08:37:08.253Z,7.01
2022-12-31T08:40:33.478Z,8.41
2022-12-31T08:43:41.205Z,7.95
2022-12-31T08:47:02.006Z,8.66
2022-12-31T08:50:04.294Z,9.45
2022-12-31T08:53:06.307Z,8.18
2022-12-31T08:56:10.689Z,7.98
2022-12-31T08:59:31.317Z,8.57
2022-12-31T09:02:33.215Z,9.26
2022-12-31T09:05:53.126Z,7.83
2022-12-31T09:09:01.039Z,8.82
2022-12-31T09:12:05.907Z,9.33
2022-12-31T09:15:07.974Z,8.70
2022-12-31T09:18:10.133Z,8.64
2022-12-31T09:21:13.497Z,8.24
2022-12-31T09:24:15.763Z,7.71
2022-12-31T09:27:23.865Z,8.82
2022-12-31T09:30:29.420Z,9.37
2022-12-31T09:33:43.211Z,8.23
2022-12-31T09:36:46.900Z,9.29
2022-12-31T09:39:48.848Z,9.37
2022-12-31T09:43:09.639Z,8.89
2022-12-31T09:46:30.507Z,8.92
2022-12-31T09:49:32.524Z,9.53
2022-12-31T09:52:47.700Z,10.14
2022-12-31T09:55:51.608Z,9.32
2022-12-31T09:59:04.111Z,10.28
2022-12-31T10:02:15.210Z,10.84
2022-12-31T10:05:30.123Z,10.91
2022-12-31T10:08:50.724Z,9.74
2022-12-31T10:11:55.724Z,10.01
2022-12-31T10:14:57.753Z,10.90
2022-12-31T10:18:14.175Z,10.63
2022-12-31T10:21:34.860Z,11.06
2022-12-31T10:24:49.708Z,10.63
2022-12-31T10:27:55.542Z,11.01
2022-12-31T10:31:03.025Z,10.80
2022-12-31T10:34:04.871Z,10.64
2022-12-31T10:37:07.056Z,9.99
2022-12-31T10:40:08.876Z,10.10
2022-12-31T10:43:16.785Z,10.98
2022-12-31T10:46:30.606Z,10.74
2022-12-31T10:49:41.754Z,9.86
2022-12-31T10:52:43.574Z,10.15
2022-12-31T10:55:45.642Z,9.95
2022-12-31T10:59:06.234Z,10.29
2022-12-31T11:02:08.388Z,10.93
2022-12-31T11:05:25.679Z,9.88
2022-12-31T11:08:39.696Z,10.66
2022-12-31T11:11:47.992Z,9.91
2022-12-31T11:15:08.770Z,10.13
2022-12-31T11:18:18.211Z,10.10
2022-12-31T11:21:39.461Z,10.48
2022-12-31T11:24:58.503Z,9.99
2022-12-31T11:28:19.192Z,10.94
2022-12-31T11:31:42.513Z,10.38
2022-12-31T11:34:50.283Z,10.33
2022-12-31T11:37:53.357Z,10.25
2022-12-31T11:40:55.243Z,10.07
2022-12-31T11:44:03.636Z,9.84
2022-12-31T11:47:31.970Z,10.90
2022-12-31T11:50:33.908Z,9.73
2022-12-31T11:53:35.924Z,10.12
2022-12-31T11:56:39.118Z,10.40
2022-12-31T11:59:41.147Z,11.02
2022-12-31T12:02:43.701Z,10.29
2022-12-31T12:05:45.595Z,10.41
2022-12-31T12:08:47.748Z,10.65
2022-12-31T12:11:57.322Z,11.19
2022-12-31T12:14:59.267Z,10.57
2022-12-31T12:18:05.401Z,10.92
2022-12-31T12:21:16.658Z,10.39
2022-12-31T12:24:18.626Z,11.24
2022-12-31T12:27:22.024Z,10.95
2022-12-31T12:30:24.865Z,11.25
2022-12-31T12:33:27.293Z,11.46
2022-12-31T12:36:29.205Z,11.25
2022-12-31T12:39:32.638Z,10.97
2022-12-31T12:42:34.559Z,11.78
2022-12-31T12:45:49.017Z,12.43
2022-12-31T12:48:55.148Z,11.55
2022-12-31T12:52:07.052Z,11.19
2022-12-31T12:55:18.072Z,11.60
2022-12-31T12:58:58.293Z,12.03
2022-12-31T13:02:19.235Z,11.36
2022-12-31T13:05:27.745Z,10.93
2022-12-31T13:08:35.793Z,10.84
2022-12-31T13:11:40.629Z,10.51
2022-12-31T13:14:42.530Z,11.46
2022-12-31T13:18:01.915Z,11.68
2022-12-31T13:21:30.664Z,11.77
2022-12-31T13:24:32.538Z,11.87
2022-12-31T13:27:35.668Z,11.29
2022-12-31T13:30:41.894Z,10.91
2022-12-31T13:33:48.379Z,12.36
2022-12-31T13:36:50.862Z,11.68
2022-12-31T13:39:55.839Z,11.96
2022-12-31T13:43:00.234Z,11.62
2022-12-31T13:46:08.892Z,12.26
2022-12-31T13:49:21.793Z,11.27
2022-12-31T13:52:40.574Z,11.61
2022-12-31T13:55:44.391Z,11.38
2022-12-31T13:59:03.819Z,10.78
2022-12-31T14:02:24.800Z,11.03
2022-12-31T14:05:30.229Z,11.26
2022-12-31T14:08:32.209Z,11.28
2022-12-31T14:11:52.758Z,11.53
2022-12-31T14:14:57.589Z,11.85
2022-12-31T14:18:17.876Z,10.90
2022-12-31T14:21:28.914Z,11.36
2022-12-31T14:24:51.280Z,11.43
2022-12-31T14:27:53.559Z,12.16
2022-12-31T14:31:17.126Z,12.07
2022-12-31T14:34:21.507Z,12.35
2022-12-31T14:37:28.067Z,11.29
2022-12-31T14:40:32.982Z,11.59
2022-12-31T14:43:39.543Z,11.81
2022-12-31T14:46:44.555Z,12.06
2022-12-31T14:49:52.462Z,12.10
2022-12-31T14:53:00.425Z,11.44
2022-12-31T14:56:03.469Z,11.23
2022-12-31T14:59:19.775Z,11.58
2022-12-31T15:02:34.681Z,12.00
2022-12-31T15:05:37.273Z,12.11
2022-12-31T15:08:51.525Z,11.37
2022-12-31T15:12:08.654Z,11.31
2022-12-31T15:15:13.349Z,11.12
2022-12-31T15:18:27.650Z,11.12
2022-12-31T15:21:35.689Z,11.44
2022-12-31T15:24:37.583Z,10.93
2022-12-31T15:27:42.343Z,10.16
2022-12-31T15:30:47.891Z,10.29
2022-12-31T15:33:54.218Z,10.83
2022-12-31T15:36:57.483Z,11.39
2022-12-31T15:40:18.252Z,11.45
2022-12-31T15:43:32.184Z,11.66
2022-12-31T15:46:36.935Z,11.54
2022-12-31T15:49:41.067Z,11.78
2022-12-31T15:52:43.431Z,11.67
2022-12-31T15:55:46.727Z,11.42
2022-12-31T15:58:48.525Z,11.64
2022-12-31T16:01:50.581Z,11.78
2022-12-31T16:04:52.533Z,12.11
2022-12-31T16:07:58.316Z,11.88
2022-12-31T16:11:00.291Z,12.07
2022-12-31T16:14:02.148Z,11.85
2022-12-31T16:17:04.264Z,12.32
2022-12-31T16:20:22.899Z,11.60
2022-12-31T16:23:25.913Z,11.68
2022-12-31T16:26:29.432Z,12.14
2022-12-31T16:29:31.244Z,12.04
2022-12-31T16:32:37.319Z,12.04
2022-12-31T16:35:39.391Z,11.82
2022-12-31T16:38:41.323Z,11.73
2022-12-31T16:41:43.464Z,11.55
2022-12-31T16:44:45.917Z,11.75
2022-12-31T16:47:47.784Z,11.56
2022-12-31T16:50:50.976Z,11.56
2022-12-31T16:53:52.864Z,11.15
2022-12-31T16:56:54.687Z,11.81
2022-12-31T17:00:04.410Z,11.16
2022-12-31T17:03:25.251Z,11.69
2022-12-31T17:06:28.413Z,11.50
2022-12-31T17:09:35.035Z,11.55
2022-12-31T17:13:25.443Z,11.63
2022-12-31T17:16:09.394Z,11.37
2022-12-31T17:19:40.864Z,11.29
2022-12-31T17:22:42.922Z,11.37
2022-12-31T17:25:44.907Z,11.29
2022-12-31T17:28:47.714Z,11.06
2022-12-31T17:31:59.915Z,11.55
2022-12-31T17:35:01.784Z,11.52
2022-12-31T17:38:22.086Z,11.35
2022-12-31T17:41:27.035Z,11.29
2022-12-31T17:44:29.323Z,11.03
2022-12-31T17:47:35.611Z,11.10
2022-12-31T17:50:37.439Z,11.24
2022-12-31T17:53:39.332Z,11.12
2022-12-31T17:56:41.366Z,11.13
2022-12-31T17:59:43.231Z,11.17
2022-12-31T18:02:45.616Z,11.25
2022-12-31T18:05:47.607Z,11.25
2022-12-31T18:08:49.671Z,11.04
2022-12-31T18:11:54.353Z,11.04
2022-12-31T18:14:58.798Z,11.56
2022-12-31T18:18:00.642Z,11.54
2022-12-31T18:21:26.751Z,11.39
2022-12-31T18:24:28.602Z,11.44
2022-12-31T18:27:34.106Z,11.53
2022-12-31T18:30:35.944Z,11.17
2022-12-31T18:33:37.910Z,11.10
2022-12-31T18:36:40.157Z,11.24
2022-12-31T18:39:42.045Z,11.58
2022-12-31T18:42:43.895Z,11.11
2022-12-31T18:45:46.431Z,10.89
2022-12-31T18:48:48.456Z,11.06
2022-12-31T18:51:54.088Z,11.02
2022-12-31T18:54:55.956Z,10.99
2022-12-31T18:57:57.780Z,11.35
2022-12-31T19:00:59.877Z,11.22
2022-12-31T19:04:10.930Z,10.89
2022-12-31T19:07:13.008Z,10.96
2022-12-31T19:10:16.362Z,10.61
2022-12-31T19:13:19.317Z,10.68
2022-12-31T19:16:21.237Z,10.67
2022-12-31T19:19:23.137Z,11.00
2022-12-31T19:22:25.269Z,10.74
2022-12-31T19:25:34.294Z,10.95
2022-12-31T19:28:36.299Z,10.83
2022-12-31T19:31:38.174Z,9.66
2022-12-31T19:34:40.038Z,10.35
2022-12-31T19:37:42.431Z,10.02
2022-12-31T19:40:44.445Z,9.92
2022-12-31T19:43:47.441Z,10.36
2022-12-31T19:46:49.416Z,9.89
2022-12-31T19:49:51.332Z,10.52
2022-12-31T19:52:54.619Z,10.76
2022-12-31T19:55:56.528Z,10.41
2022-12-31T19:58:58.360Z,9.74
2022-12-31T20:02:00.413Z,9.54
2022-12-31T20:05:02.358Z,10.15
2022-12-31T20:08:04.326Z,10.40
2022-12-31T20:11:10.251Z,10.36
2022-12-31T20:14:12.169Z,10.00
2022-12-31T20:17:14.190Z,10.16
2022-12-31T20:20:16.210Z,10.35
2022-12-31T20:23:18.245Z,10.18
2022-12-31T20:26:20.607Z,10.20
2022-12-31T20:29:22.562Z,10.11
2022-12-31T20:32:24.467Z,9.98
2022-12-31T20:35:26.366Z,10.00
2022-12-31T20:38:28.512Z,9.99
2022-12-31T20:41:32.129Z,9.34
2022-12-31T20:44:33.962Z,9.79
2022-12-31T20:47:35.879Z,9.54
2022-12-31T20:50:37.923Z,9.67
2022-12-31T20:53:39.917Z,10.09
2022-12-31T20:56:41.856Z,10.43
2022-12-31T20:59:43.818Z,10.08
2022-12-31T21:02:51.535Z,9.37
2022-12-31T21:05:58.475Z,9.62
2022-12-31T21:09:01.184Z,10.09
2022-12-31T21:12:21.817Z,9.90
2022-12-31T21:15:23.791Z,9.69
2022-12-31T21:18:25.689Z,9.39
2022-12-31T21:21:27.669Z,9.60
2022-12-31T21:24:30.084Z,9.92
2022-12-31T21:27:31.924Z,9.45
2022-12-31T21:30:33.899Z,9.58
2022-12-31T21:33:35.783Z,9.20
2022-12-31T21:36:37.787Z,9.08
2022-12-31T21:39:39.768Z,8.33
2022-12-31T21:42:41.586Z,8.92
2022-12-31T21:45:43.519Z,8.79
2022-12-31T21:48:45.350Z,9.55
2022-12-31T21:52:06.054Z,8.70
2022-12-31T21:55:43.761Z,8.91
2022-12-31T21:58:46.605Z,9.04
2022-12-31T22:02:07.345Z,8.77
2022-12-31T22:05:17.568Z,8.27
2022-12-31T22:08:23.554Z,8.86
2022-12-31T22:11:26.839Z,9.55
2022-12-31T22:14:28.743Z,8.26
2022-12-31T22:17:30.859Z,7.19
2022-12-31T22:20:32.770Z,7.84
2022-12-31T22:23:34.850Z,8.43
2022-12-31T22:26:39.268Z,8.90
2022-12-31T22:29:45.064Z,9.17
2022-12-31T22:32:46.924Z,7.69
2022-12-31T22:36:01.681Z,8.14
2022-12-31T22:39:03.774Z,8.19
2022-12-31T22:42:05.665Z,8.67
2022-12-31T22:45:08.216Z,9.10
2022-12-31T22:48:10.637Z,8.95
2022-12-31T22:51:12.606Z,8.67
2022-12-31T22:54:14.722Z,8.56
2022-12-31T22:57:20.161Z,9.26
2022-12-31T23:00:22.473Z,9.17
2022-12-31T23:03:24.459Z,8.96
2022-12-31T23:06:26.409Z,9.09
2022-12-31T23:09:46.817Z,8.31
2022-12-31T23:12:48.803Z,8.61
2022-12-31T23:16:09.648Z,8.23
2022-12-31T23:19:30.400Z,8.87
2022-12-31T23:22:50.703Z,8.89
2022-12-31T23:25:52.668Z,9.03
2022-12-31T23:28:54.604Z,8.89
2022-12-31T23:31:56.510Z,9.05
2022-12-31T23:34:58.397Z,9.21
2022-12-31T23:38:00.309Z,8.78
2022-12-31T23:41:11.131Z,8.51
2022-12-31T23:44:13.153Z,8.23
2022-12-31T23:47:14.994Z,8.87
2022-12-31T23:50:17.151Z,8.14
2022-12-31T23:53:19.040Z,8.54
2022-12-31T23:56:23.904Z,8.50
2022-12-31T23:59:26.113Z,8.58
